createdAt,value
2017-05-07T00:00:11.750Z,70.90
2017-05-07T00:02:40.627Z,71.30
2017-05-07T00:05:09.527Z,71.00
2017-05-07T00:07:38.410Z,70.30
2017-05-07T00:10:07.326Z,70.00
2017-05-07T00:12:36.209Z,71.10
2017-05-07T00:15:05.090Z,71.30
2017-05-07T00:17:34.001Z,71.20
2017-05-07T00:20:02.882Z,71.80
2017-05-07T00:22:31.760Z,70.90
2017-05-07T00:25:00.961Z,72.20
2017-05-07T00:27:29.836Z,71.20
2017-05-07T00:29:58.705Z,71.30
2017-05-07T00:32:28.357Z,71.80
2017-05-07T00:34:57.230Z,72.00
2017-05-07T00:37:26.109Z,72.50
2017-05-07T00:39:55.013Z,72.70
2017-05-07T00:42:23.889Z,72.50
2017-05-07T00:44:52.999Z,72.70
2017-05-07T00:47:21.871Z,72.80
2017-05-07T00:49:50.745Z,73.40
2017-05-07T00:52:19.883Z,73.60
2017-05-07T00:54:48.754Z,73.50
2017-05-07T00:57:17.646Z,73.70
2017-05-07T00:59:47.903Z,74.40
2017-05-07T01:02:16.780Z,73.70
2017-05-07T01:04:45.653Z,73.50
2017-05-07T01:07:14.570Z,74.60
2017-05-07T01:09:43.441Z,74.90
2017-05-07T01:12:12.324Z,75.30
2017-05-07T01:14:41.226Z,75.20
2017-05-07T01:17:10.097Z,75.00
2017-05-07T01:19:39.021Z,75.60
2017-05-07T01:22:07.903Z,75.60
2017-05-07T01:24:36.772Z,74.70
2017-05-07T01:27:05.986Z,73.90
2017-05-07T01:29:34.860Z,74.70
2017-05-07T01:32:03.740Z,75.10
2017-05-07T01:34:33.684Z,74.90
2017-05-07T01:37:02.561Z,74.50
2017-05-07T01:39:31.448Z,74.70
2017-05-07T01:42:00.360Z,74.70
2017-05-07T01:44:29.242Z,74.90
2017-05-07T01:46:58.120Z,74.90
2017-05-07T01:49:27.028Z,75.00
2017-05-07T01:51:55.901Z,75.60
2017-05-07T01:54:24.819Z,75.90
2017-05-07T01:56:53.697Z,75.90
2017-05-07T01:59:22.573Z,76.60
2017-05-07T02:01:51.581Z,76.80
2017-05-07T02:04:20.461Z,76.90
2017-05-07T02:06:49.334Z,77.00
2017-05-07T02:09:19.281Z,75.40
2017-05-07T02:11:48.177Z,76.10
2017-05-07T02:14:17.053Z,76.00
2017-05-07T02:16:45.953Z,76.30
2017-05-07T02:19:14.864Z,76.80
2017-05-07T02:21:43.741Z,77.30
2017-05-07T02:24:12.615Z,77.70
2017-05-07T02:26:41.518Z,77.90
2017-05-07T02:29:10.397Z,77.30
2017-05-07T02:31:39.315Z,77.50
2017-05-07T02:34:08.193Z,78.40
2017-05-07T02:36:37.065Z,78.90
2017-05-07T02:39:05.977Z,78.30
2017-05-07T02:41:34.855Z,78.60
2017-05-07T02:44:03.725Z,78.70
2017-05-07T02:46:32.644Z,78.50
2017-05-07T02:49:01.528Z,79.20
2017-05-07T02:51:30.401Z,78.70
2017-05-07T02:53:59.322Z,79.00
2017-05-07T02:56:28.188Z,79.00
2017-05-07T02:58:57.062Z,78.90
2017-05-07T03:01:26.817Z,78.30
2017-05-07T03:03:55.693Z,78.60
2017-05-07T03:06:24.563Z,79.00
2017-05-07T03:08:53.466Z,79.20
2017-05-07T03:11:22.342Z,79.00
2017-05-07T03:13:51.258Z,78.80
2017-05-07T03:16:20.137Z,77.20
2017-05-07T03:18:49.018Z,77.70
2017-05-07T03:21:17.937Z,78.20
2017-05-07T03:23:46.813Z,78.70
2017-05-07T03:26:15.689Z,78.50
2017-05-07T03:28:44.721Z,78.70
2017-05-07T03:31:13.601Z,79.20
2017-05-07T03:33:42.504Z,79.70
2017-05-07T03:36:11.421Z,79.80
2017-05-07T03:38:40.301Z,79.70
2017-05-07T03:41:09.186Z,79.50
2017-05-07T03:43:38.081Z,80.10
2017-05-07T03:46:06.961Z,80.60
2017-05-07T03:48:35.996Z,80.40
2017-05-07T03:51:04.873Z,80.60
2017-05-07T03:53:33.754Z,80.80
2017-05-07T03:56:02.906Z,80.50
2017-05-07T03:58:31.906Z,80.80
2017-05-07T04:01:00.781Z,80.10
2017-05-07T04:03:29.660Z,80.40
2017-05-07T04:05:58.881Z,80.00
2017-05-07T04:08:27.762Z,80.00
2017-05-07T04:10:56.636Z,80.50
2017-05-07T04:13:25.540Z,80.60
2017-05-07T04:15:54.417Z,80.00
2017-05-07T04:18:23.338Z,80.00
2017-05-07T04:20:52.218Z,80.40
2017-05-07T04:23:21.089Z,80.60
2017-05-07T04:25:50.009Z,80.60
2017-05-07T04:28:18.984Z,80.80
2017-05-07T04:30:47.887Z,80.50
2017-05-07T04:33:16.813Z,80.60
2017-05-07T04:35:45.689Z,80.50
2017-05-07T04:38:14.570Z,80.60
2017-05-07T04:40:43.489Z,80.30
2017-05-07T04:43:12.372Z,80.50
2017-05-07T04:45:41.253Z,80.00
2017-05-07T04:48:10.434Z,79.80
2017-05-07T04:50:39.309Z,79.70
2017-05-07T04:53:08.187Z,79.50
2017-05-07T04:55:37.101Z,80.80
2017-05-07T04:58:05.976Z,79.90
2017-05-07T05:00:34.855Z,79.30
2017-05-07T05:03:04.800Z,78.60
2017-05-07T05:05:33.681Z,78.50
2017-05-07T05:08:02.557Z,78.10
2017-05-07T05:10:31.456Z,77.50
2017-05-07T05:13:00.332Z,77.00
2017-05-07T05:15:30.092Z,76.40
2017-05-07T05:17:58.973Z,76.60
2017-05-07T05:20:43.675Z,75.70
2017-05-07T05:23:30.162Z,73.90
2017-05-07T05:29:20.345Z,71.50
2017-05-07T05:31:50.490Z,72.50
2017-05-07T05:34:19.364Z,71.50
2017-05-07T05:36:48.240Z,72.60
2017-05-07T05:39:17.162Z,70.70
2017-05-07T05:41:46.041Z,69.90
2017-05-07T05:44:14.918Z,68.90
2017-05-07T05:46:43.834Z,68.00
2017-05-07T05:49:12.718Z,69.10
2017-05-07T05:51:41.597Z,69.00
2017-05-07T05:54:10.497Z,69.60
2017-05-07T05:56:39.379Z,69.50
2017-05-07T05:59:08.297Z,68.70
2017-05-07T06:01:37.175Z,69.00
2017-05-07T06:04:06.138Z,67.90
2017-05-07T06:06:35.030Z,68.20
2017-05-07T06:09:03.938Z,68.20
2017-05-07T06:11:32.821Z,69.20
2017-05-07T06:14:01.719Z,70.00
2017-05-07T06:16:30.596Z,70.10
2017-05-07T06:18:59.501Z,69.10
2017-05-07T06:21:28.425Z,69.80
2017-05-07T06:23:58.044Z,68.90
2017-05-07T06:26:27.782Z,70.60
2017-05-07T06:28:56.738Z,70.00
2017-05-07T06:31:25.609Z,68.60
2017-05-07T06:33:54.485Z,69.20
2017-05-07T06:36:23.605Z,67.90
2017-05-07T06:38:52.494Z,67.90
2017-05-07T06:41:21.361Z,68.10
2017-05-07T06:43:50.280Z,68.20
2017-05-07T06:46:19.158Z,67.20
2017-05-07T06:48:48.036Z,66.70
2017-05-07T06:51:17.041Z,67.20
2017-05-07T06:53:45.916Z,64.60
2017-05-07T06:56:14.788Z,65.70
2017-05-07T06:58:43.705Z,64.50
2017-05-07T07:01:12.580Z,64.90
2017-05-07T07:03:41.458Z,66.00
2017-05-07T07:06:10.369Z,66.30
2017-05-07T07:08:39.245Z,65.70
2017-05-07T07:11:08.120Z,64.60
2017-05-07T07:13:37.041Z,64.80
2017-05-07T07:16:05.925Z,64.40
2017-05-07T07:18:34.806Z,64.20
2017-05-07T07:21:03.713Z,63.80
2017-05-07T07:23:32.892Z,60.80
2017-05-07T07:26:01.775Z,61.30
2017-05-07T07:28:30.650Z,62.90
2017-05-07T07:31:00.284Z,63.10
2017-05-07T07:33:29.161Z,63.20
2017-05-07T07:35:58.065Z,63.50
2017-05-07T07:38:26.936Z,63.00
2017-05-07T07:40:55.862Z,63.00
2017-05-07T07:43:24.733Z,61.90
2017-05-07T07:45:53.648Z,60.20
2017-05-07T07:48:22.565Z,61.20
2017-05-07T07:50:51.441Z,62.10
2017-05-07T07:53:20.316Z,62.70
2017-05-07T07:55:49.239Z,61.00
2017-05-07T07:58:18.116Z,63.10
2017-05-07T08:00:47.001Z,62.90
2017-05-07T08:03:16.164Z,62.20
2017-05-07T08:05:45.033Z,61.80
2017-05-07T08:08:14.639Z,60.10
2017-05-07T08:10:43.740Z,60.50
2017-05-07T08:13:12.613Z,61.40
2017-05-07T08:15:42.233Z,60.50
2017-05-07T08:18:11.146Z,61.60
2017-05-07T08:20:40.018Z,60.40
2017-05-07T08:23:08.893Z,60.80
2017-05-07T08:25:38.844Z,61.70
2017-05-07T08:28:07.712Z,59.70
2017-05-07T08:30:36.600Z,59.70
2017-05-07T08:33:06.266Z,59.90
2017-05-07T08:35:35.135Z,59.10
2017-05-07T08:38:04.009Z,59.20
2017-05-07T08:40:32.924Z,57.80
2017-05-07T08:43:01.805Z,57.70
2017-05-07T08:45:30.713Z,59.10
2017-05-07T08:47:59.884Z,58.50
2017-05-07T08:50:28.765Z,58.90
2017-05-07T08:52:57.637Z,59.00
2017-05-07T08:55:27.581Z,59.50
2017-05-07T08:57:56.453Z,58.80
2017-05-07T09:00:25.328Z,59.40
2017-05-07T09:02:55.080Z,59.10
2017-05-07T09:05:23.964Z,59.70
2017-05-07T09:07:52.830Z,58.80
2017-05-07T09:10:21.745Z,58.60
2017-05-07T09:13:08.253Z,58.30
2017-05-07T09:15:38.595Z,59.70
2017-05-07T09:18:23.306Z,58.30
2017-05-07T09:20:53.248Z,58.40
2017-05-07T09:23:22.126Z,59.00
2017-05-07T09:25:51.004Z,58.30
2017-05-07T09:28:19.925Z,58.90
2017-05-07T09:30:48.796Z,58.30
2017-05-07T09:33:17.699Z,58.80
2017-05-07T09:35:46.901Z,58.30
2017-05-07T09:38:15.782Z,60.00
2017-05-07T09:40:44.657Z,58.20
2017-05-07T09:43:13.883Z,58.30
2017-05-07T09:45:42.758Z,58.90
2017-05-07T09:48:11.637Z,57.90
2017-05-07T09:50:41.290Z,58.30
2017-05-07T09:53:10.191Z,58.10
2017-05-07T09:55:39.061Z,58.80
2017-05-07T09:58:08.076Z,59.50
2017-05-07T10:00:36.954Z,58.60
2017-05-07T10:03:05.833Z,58.10
2017-05-07T10:05:34.738Z,57.40
2017-05-07T10:08:03.621Z,57.90
2017-05-07T10:10:32.629Z,58.50
2017-05-07T10:13:01.504Z,57.20
2017-05-07T10:15:30.386Z,56.40
2017-05-07T10:17:59.301Z,57.80
2017-05-07T10:20:28.181Z,56.10
2017-05-07T10:22:57.059Z,56.10
2017-05-07T10:25:25.975Z,55.50
2017-05-07T10:27:54.845Z,57.10
2017-05-07T10:30:24.048Z,55.30
2017-05-07T10:32:53.238Z,55.60
2017-05-07T10:35:22.136Z,55.10
2017-05-07T10:37:51.012Z,55.50
2017-05-07T10:40:20.210Z,55.40
2017-05-07T10:42:49.085Z,56.10
2017-05-07T10:45:17.981Z,54.70
2017-05-07T10:47:46.898Z,55.10
2017-05-07T10:50:15.764Z,53.40
2017-05-07T10:52:44.644Z,56.00
2017-05-07T10:55:13.566Z,55.80
2017-05-07T10:57:42.432Z,55.50
2017-05-07T11:00:11.305Z,55.60
2017-05-07T11:02:40.225Z,56.30
2017-05-07T11:05:09.105Z,55.30
2017-05-07T11:07:37.990Z,56.40
2017-05-07T11:10:06.915Z,57.20
2017-05-07T11:12:35.953Z,56.00
2017-05-07T11:15:04.821Z,56.70
2017-05-07T11:17:33.743Z,56.90
2017-05-07T11:20:03.361Z,57.90
2017-05-07T11:25:07.330Z,57.40
2017-05-07T11:27:37.110Z,54.70
2017-05-07T11:30:06.281Z,54.30
2017-05-07T11:32:35.901Z,54.70
2017-05-07T11:35:04.775Z,55.70
2017-05-07T11:37:34.417Z,55.30
2017-05-07T11:40:03.289Z,55.60
2017-05-07T11:42:32.207Z,57.20
2017-05-07T11:45:01.076Z,56.30
2017-05-07T11:47:29.958Z,56.00
2017-05-07T11:49:58.876Z,55.70
2017-05-07T11:52:27.747Z,56.30
2017-05-07T11:54:56.620Z,57.70
2017-05-07T11:57:26.269Z,59.10
2017-05-07T11:59:55.136Z,59.00
2017-05-07T12:02:24.021Z,58.90
2017-05-07T12:04:52.942Z,57.50
2017-05-07T12:07:21.813Z,57.80
2017-05-07T12:09:50.685Z,58.40
2017-05-07T12:12:20.333Z,58.70
2017-05-07T12:14:49.203Z,59.40
2017-05-07T12:17:18.072Z,60.50
2017-05-07T12:19:47.729Z,58.60
2017-05-07T12:22:16.604Z,57.00
2017-05-07T12:24:45.477Z,56.10
2017-05-07T12:27:14.374Z,55.00
2017-05-07T12:29:43.246Z,55.30
2017-05-07T12:32:13.022Z,53.70
2017-05-07T12:34:42.133Z,50.90
2017-05-07T12:37:11.872Z,50.20
2017-05-07T12:39:40.870Z,49.50
2017-05-07T12:42:09.887Z,51.40
2017-05-07T12:44:38.789Z,52.40
2017-05-07T12:47:08.017Z,49.60
2017-05-07T12:49:37.735Z,50.60
2017-05-07T12:52:07.385Z,50.10
2017-05-07T12:54:36.336Z,50.50
2017-05-07T12:57:05.944Z,53.00
2017-05-07T12:59:35.745Z,53.50
2017-05-07T13:02:05.414Z,53.10
2017-05-07T13:04:34.385Z,51.40
2017-05-07T13:07:03.402Z,41.00
2017-05-07T13:09:32.301Z,34.40
2017-05-07T13:12:01.184Z,32.30
2017-05-07T13:14:30.122Z,29.60
2017-05-07T13:16:58.998Z,26.40
2017-05-07T13:19:27.982Z,25.70
2017-05-07T13:21:57.121Z,23.10
2017-05-07T13:24:26.042Z,23.10
2017-05-07T13:26:54.931Z,23.40
2017-05-07T13:29:24.055Z,22.50
2017-05-07T13:31:52.953Z,22.50
2017-05-07T13:34:21.829Z,23.20
2017-05-07T13:36:50.773Z,23.50
2017-05-07T13:39:19.837Z,24.10
2017-05-07T13:41:48.716Z,27.20
2017-05-07T13:44:17.617Z,27.40
2017-05-07T13:46:46.514Z,26.30
2017-05-07T13:49:15.893Z,25.30
2017-05-07T13:51:44.769Z,24.90
2017-05-07T13:54:13.657Z,23.50
2017-05-07T13:56:42.787Z,25.40
2017-05-07T13:59:11.660Z,27.40
2017-05-07T14:01:40.543Z,27.90
2017-05-07T14:04:09.556Z,24.90
2017-05-07T14:06:38.449Z,23.90
2017-05-07T14:09:08.091Z,19.70
2017-05-07T14:11:38.029Z,17.10
2017-05-07T14:14:06.929Z,17.70
2017-05-07T14:16:35.808Z,22.20
2017-05-07T14:19:04.726Z,22.30
2017-05-07T14:21:33.601Z,21.90
2017-05-07T14:24:02.473Z,22.40
2017-05-07T14:26:31.375Z,22.40
2017-05-07T14:29:00.251Z,21.10
2017-05-07T14:31:29.164Z,18.90
2017-05-07T14:33:58.047Z,18.50
2017-05-07T14:36:26.931Z,18.40
2017-05-07T14:38:56.133Z,16.00
2017-05-07T14:41:25.009Z,17.00
2017-05-07T14:43:53.880Z,17.10
2017-05-07T14:46:23.545Z,18.80
2017-05-07T14:48:52.428Z,20.00
2017-05-07T14:51:21.312Z,20.80
2017-05-07T14:53:50.294Z,22.50
2017-05-07T14:56:19.164Z,24.40
2017-05-07T14:58:48.077Z,25.60
2017-05-07T15:01:16.972Z,26.40
2017-05-07T15:03:45.845Z,26.00
2017-05-07T15:06:14.716Z,26.10
2017-05-07T15:08:44.665Z,25.30
2017-05-07T15:11:13.560Z,25.70
2017-05-07T15:13:42.440Z,26.20
2017-05-07T15:16:11.653Z,28.10
2017-05-07T15:18:40.544Z,28.00
2017-05-07T15:21:09.424Z,28.60
2017-05-07T15:23:38.574Z,27.80
2017-05-07T15:26:07.449Z,28.10
2017-05-07T15:28:36.333Z,27.90
2017-05-07T15:31:05.348Z,28.60
2017-05-07T15:33:34.223Z,27.70
2017-05-07T15:36:03.105Z,29.50
2017-05-07T15:38:32.137Z,26.70
2017-05-07T15:41:01.072Z,27.10
2017-05-07T15:43:29.950Z,27.20
2017-05-07T15:45:58.853Z,27.00
2017-05-07T15:48:27.757Z,27.40
2017-05-07T15:50:56.685Z,27.60
2017-05-07T15:53:25.559Z,28.30
2017-05-07T15:55:54.432Z,29.60
2017-05-07T15:58:23.439Z,28.80
2017-05-07T16:00:52.312Z,27.30
2017-05-07T16:03:21.201Z,27.70
2017-05-07T16:05:50.104Z,27.60
2017-05-07T16:08:18.981Z,27.80
2017-05-07T16:10:48.158Z,27.80
2017-05-07T16:13:17.034Z,29.20
2017-05-07T16:15:45.905Z,29.50
2017-05-07T16:27:50.528Z,31.90
2017-05-07T16:30:20.959Z,29.60
2017-05-07T16:32:50.566Z,30.80
2017-05-07T16:35:19.493Z,30.70
2017-05-07T16:37:48.393Z,30.60
2017-05-07T16:40:17.264Z,30.40
2017-05-07T16:42:46.163Z,32.70
2017-05-07T16:45:15.344Z,32.20
2017-05-07T16:47:44.220Z,32.20
2017-05-07T16:50:13.141Z,34.10
2017-05-07T16:52:42.413Z,32.20
2017-05-07T16:55:11.351Z,32.80
2017-05-07T16:57:40.229Z,32.90
2017-05-07T17:00:09.156Z,32.60
2017-05-07T17:02:57.810Z,34.80
2017-05-07T17:05:27.678Z,35.30
2017-05-07T17:07:56.557Z,33.10
2017-05-07T17:10:25.432Z,32.90
2017-05-07T17:12:54.441Z,32.60
2017-05-07T17:15:23.318Z,32.80
2017-05-07T17:17:52.201Z,33.00
2017-05-07T17:20:21.146Z,33.90
2017-05-07T17:22:50.010Z,35.00
2017-05-07T17:25:18.895Z,34.80
2017-05-07T17:27:47.813Z,36.80
2017-05-07T17:30:16.702Z,34.40
2017-05-07T17:32:45.572Z,34.90
2017-05-07T17:35:14.494Z,36.60
2017-05-07T17:37:43.370Z,36.30
2017-05-07T17:40:12.250Z,36.50
2017-05-07T17:42:41.249Z,36.90
2017-05-07T17:45:10.128Z,34.80
2017-05-07T17:47:39.004Z,37.20
2017-05-07T17:50:08.237Z,36.30
2017-05-07T17:52:37.133Z,36.20
2017-05-07T17:55:06.036Z,35.70
2017-05-07T17:57:34.935Z,36.70
2017-05-07T18:00:03.814Z,37.10
2017-05-07T18:02:32.990Z,37.20
2017-05-07T18:05:01.881Z,38.30
2017-05-07T18:07:30.749Z,38.20
2017-05-07T18:10:00.393Z,39.50
2017-05-07T18:12:29.577Z,39.30
2017-05-07T18:14:58.470Z,38.10
2017-05-07T18:17:27.345Z,38.30
2017-05-07T18:19:56.559Z,39.20
2017-05-07T18:22:25.433Z,38.60
2017-05-07T18:24:55.109Z,39.80
2017-05-07T18:27:24.764Z,40.30
2017-05-07T18:29:53.632Z,40.50
2017-05-07T18:32:22.556Z,40.20
2017-05-07T18:34:51.424Z,39.10
2017-05-07T18:37:20.302Z,40.10
2017-05-07T18:39:49.950Z,37.70
2017-05-07T18:42:19.134Z,37.80
2017-05-07T18:44:48.017Z,37.80
2017-05-07T18:47:16.896Z,39.40
2017-05-07T18:49:46.121Z,40.30
2017-05-07T18:52:14.990Z,39.00
2017-05-07T18:54:43.866Z,39.20
2017-05-07T18:57:13.532Z,39.70
2017-05-07T18:59:42.407Z,39.30
2017-05-07T19:02:11.279Z,37.10
2017-05-07T19:04:40.194Z,36.40
2017-05-07T19:07:09.755Z,37.90
2017-05-07T19:09:38.633Z,37.80
2017-05-07T19:12:08.784Z,38.30
2017-05-07T19:14:37.655Z,37.20
2017-05-07T19:17:06.531Z,37.60
2017-05-07T19:19:36.185Z,38.40
2017-05-07T19:22:05.062Z,39.50
2017-05-07T19:24:33.933Z,39.80
2017-05-07T19:27:03.560Z,40.40
2017-05-07T19:29:32.437Z,40.80
2017-05-07T19:32:01.310Z,40.70
2017-05-07T19:34:30.968Z,41.30
2017-05-07T19:36:59.849Z,41.50
2017-05-07T19:39:28.721Z,42.50
2017-05-07T19:41:57.628Z,44.30
2017-05-07T19:44:26.505Z,45.90
2017-05-07T19:46:55.377Z,46.80
2017-05-07T19:49:25.847Z,47.30
2017-05-07T19:51:54.812Z,48.70
2017-05-07T19:54:23.715Z,48.20
2017-05-07T19:56:52.713Z,49.10
2017-05-07T19:59:21.579Z,49.60
2017-05-07T20:01:50.482Z,49.90
2017-05-07T20:04:19.433Z,50.80
2017-05-07T20:06:49.056Z,50.90
2017-05-07T20:09:18.740Z,51.90
2017-05-07T20:11:48.372Z,51.40
2017-05-07T20:14:17.990Z,52.20
2017-05-07T20:16:47.628Z,52.50
2017-05-07T20:19:16.503Z,53.40
2017-05-07T20:21:45.409Z,53.80
2017-05-07T20:24:14.281Z,54.10
2017-05-07T20:26:43.286Z,54.70
2017-05-07T20:29:12.161Z,54.70
2017-05-07T20:31:41.036Z,52.90
2017-05-07T20:34:10.674Z,53.80
2017-05-07T20:36:39.549Z,53.60
2017-05-07T20:39:08.769Z,54.00
2017-05-07T20:41:37.636Z,54.60
2017-05-07T20:44:08.492Z,54.60
2017-05-07T20:46:37.401Z,55.30
2017-05-07T20:49:06.273Z,54.80
2017-05-07T20:51:35.153Z,55.10
2017-05-07T20:54:04.056Z,54.40
2017-05-07T20:56:32.936Z,54.10
2017-05-07T20:59:01.813Z,55.40
2017-05-07T21:01:31.553Z,52.80
2017-05-07T21:04:00.433Z,53.60
2017-05-07T21:06:29.312Z,55.10
2017-05-07T21:08:58.211Z,55.90
2017-05-07T21:11:27.236Z,55.00
2017-05-07T21:13:56.156Z,55.80
2017-05-07T21:16:25.215Z,56.50
2017-05-07T21:18:54.095Z,56.60
2017-05-07T21:21:23.012Z,57.20
2017-05-07T21:23:51.882Z,58.00
2017-05-07T21:26:20.757Z,57.80
2017-05-07T21:28:49.670Z,57.70
2017-05-07T21:31:18.549Z,58.10
2017-05-07T21:33:47.433Z,58.90
2017-05-07T21:36:16.339Z,59.00
2017-05-07T21:38:45.221Z,59.10
2017-05-07T21:41:14.136Z,58.90
2017-05-07T21:43:43.317Z,59.70
2017-05-07T21:46:12.193Z,60.60
2017-05-07T21:48:41.068Z,60.80
2017-05-07T21:51:09.988Z,61.30
2017-05-07T21:53:38.856Z,61.20
2017-05-07T21:56:07.731Z,62.00
2017-05-07T21:58:36.632Z,62.60
2017-05-07T22:01:05.505Z,62.00
2017-05-07T22:03:35.157Z,62.70
2017-05-07T22:06:04.037Z,62.20
2017-05-07T22:08:32.910Z,62.30
2017-05-07T22:11:01.830Z,62.20
2017-05-07T22:13:30.712Z,62.70
2017-05-07T22:15:59.589Z,63.30
2017-05-07T22:18:28.502Z,61.50
2017-05-07T22:20:57.376Z,60.80
2017-05-07T22:23:26.252Z,62.30
2017-05-07T22:25:55.259Z,62.00
2017-05-07T22:28:24.126Z,63.30
2017-05-07T22:30:53.007Z,63.80
2017-05-07T22:33:22.820Z,62.20
2017-05-07T22:35:52.437Z,62.60
2017-05-07T22:38:21.315Z,62.70
2017-05-07T22:40:50.964Z,64.20
2017-05-07T22:43:20.157Z,63.30
2017-05-07T22:45:49.028Z,63.10
2017-05-07T22:48:17.904Z,63.50
2017-05-07T22:50:47.564Z,63.70
2017-05-07T22:53:16.440Z,64.90
2017-05-07T22:55:45.317Z,65.00
2017-05-07T22:58:14.248Z,65.10
2017-05-07T23:00:43.111Z,64.60
2017-05-07T23:03:11.994Z,65.60
2017-05-07T23:05:40.908Z,65.50
2017-05-07T23:08:09.790Z,65.90
2017-05-07T23:10:38.657Z,65.60
2017-05-07T23:13:07.569Z,65.90
2017-05-07T23:15:36.441Z,65.80
2017-05-07T23:18:05.325Z,66.30
2017-05-07T23:20:34.972Z,66.80
2017-05-07T23:23:03.848Z,66.70
2017-05-07T23:25:32.724Z,66.70
2017-05-07T23:28:01.825Z,66.90
2017-05-07T23:30:30.704Z,66.50
2017-05-07T23:32:59.593Z,66.00
2017-05-07T23:35:28.725Z,64.90
2017-05-07T23:37:57.605Z,64.90
2017-05-07T23:40:26.482Z,65.50
2017-05-07T23:42:55.709Z,65.40
2017-05-07T23:45:24.578Z,65.00
2017-05-07T23:47:53.459Z,64.70
2017-05-07T23:50:22.465Z,64.10
2017-05-07T23:52:51.353Z,64.40
2017-05-07T23:55:20.227Z,64.20
2017-05-07T23:57:49.121Z,63.30
